Widen, West Virginia
Current Conditions -  °F | °C
As of 8:54 AM on Thursday 29 Jan 2015 (Local Time) from KCRW Reporting Station
Broken Clouds Broken Clouds  
Wind Chill: 29°   Ceiling: 12000
Heat Index: 34°   Visibility: 10mi
Dew Point: 19°   Wind: 6mph
Humidity: 54%   Direction: 160°SSE
Pressure: 30.01"   Gusts: NA
Location:  38.47°N, 80.86°W
Report Text: KCRW 291354Z 16005KT 10SM SCT075 BKN120 BKN190 01/M07 A3001 RMK AO2 SLP170 VIRGA T00111072
Loading
Personal Weather Stations






























Interactive Weather Map New forecast layout! Learn more

10-Day Weather Forecast

Advertisements
Track Severe Weather on mobile